Time;durP1;ratioP1;P1;durP2;ratioP2;P2;SDS_P1;SDS_P2;PMS_P1;PMS_P2;Temp;Humidity;BMP_temperature;BMP_pressure;BME280_temperature;BME280_humidity;BME280_pressure;Samples;Min_cycle;Max_cycle;Signal;HPM_P1;HPM_P2
2022/04/27 00:00:28;;;;;;;10.18;9.48;;;9.10;99.90;;;;;;5051528;28;20440;-80
2022/04/27 00:02:54;;;;;;;10.20;9.50;;;9.40;99.90;;;;;;5051598;28;20750;-81
2022/04/27 00:05:20;;;;;;;12.95;9.77;;;9.00;99.90;;;;;;5051605;28;20374;-81
2022/04/27 00:07:45;;;;;;;10.25;9.30;;;9.00;99.90;;;;;;5051446;28;20388;-80
2022/04/27 00:10:11;;;;;;;11.10;10.20;;;9.10;99.90;;;;;;5046212;28;20926;-81
2022/04/27 00:12:38;;;;;;;10.00;9.30;;;8.80;99.90;;;;;;5047384;28;20750;-80
2022/04/27 00:15:05;;;;;;;11.00;10.10;;;8.80;99.90;;;;;;5050148;28;20848;-80
2022/04/27 00:17:31;;;;;;;10.60;9.83;;;8.60;99.90;;;;;;5049290;28;20405;-80
2022/04/27 00:19:57;;;;;;;9.77;9.18;;;8.70;99.90;;;;;;5055171;28;20507;-80
2022/04/27 00:22:23;;;;;;;10.32;9.60;;;8.70;99.90;;;;;;5053867;28;20392;-81
2022/04/27 00:24:49;;;;;;;10.50;9.70;;;8.80;99.90;;;;;;5070437;28;20395;-81
2022/04/27 00:27:15;;;;;;;10.43;9.73;;;8.80;99.90;;;;;;5055171;28;20468;-81
2022/04/27 00:29:41;;;;;;;10.65;9.85;;;8.90;99.90;;;;;;5040805;28;20861;-81
2022/04/27 00:32:07;;;;;;;10.50;9.65;;;8.90;99.90;;;;;;5055070;28;20403;-81
2022/04/27 00:34:33;;;;;;;9.57;8.88;;;9.00;99.90;;;;;;5055252;28;20381;-81
2022/04/27 00:36:58;;;;;;;9.82;9.13;;;9.00;99.90;;;;;;5054774;28;20754;-81
2022/04/27 00:39:24;;;;;;;10.02;9.32;;;9.00;99.90;;;;;;5054841;28;20828;-81
2022/04/27 00:41:59;;;;;;;9.88;9.18;;;9.00;99.90;;;;;;5054720;28;20980;-81
2022/04/27 00:44:32;;;;;;;10.43;9.52;;;9.00;99.90;;;;;;5054849;28;20390;-81
2022/04/27 00:46:59;;;;;;;9.53;8.73;;;9.10;99.90;;;;;;5054678;28;20487;-80
2022/04/27 00:49:26;;;;;;;9.73;9.00;;;9.00;99.90;;;;;;5049592;28;20388;-81
2022/04/27 00:51:53;;;;;;;9.45;8.70;;;9.00;99.90;;;;;;5049189;28;20391;-81
2022/04/27 00:54:22;;;;;;;9.23;8.52;;;9.00;99.90;;;;;;5054744;28;20392;-81
2022/04/27 00:56:49;;;;;;;9.50;8.80;;;9.00;99.90;;;;;;5054781;28;20389;-81
2022/04/27 00:59:15;;;;;;;9.27;8.68;;;8.90;99.90;;;;;;5054449;28;20811;-81
2022/04/27 01:01:41;;;;;;;9.52;8.82;;;8.90;99.90;;;;;;5054612;28;20405;-81
2022/04/27 01:04:07;;;;;;;9.57;8.90;;;8.80;99.90;;;;;;5037478;28;20747;-81
2022/04/27 01:06:38;;;;;;;9.73;9.02;;;8.60;99.90;;;;;;5045661;28;20723;-81
2022/04/27 01:09:03;;;;;;;9.83;9.13;;;8.60;99.90;;;;;;5054358;28;20485;-81
2022/04/27 01:11:31;;;;;;;9.33;8.63;;;9.00;99.90;;;;;;5054330;28;20468;-81
2022/04/27 01:13:57;;;;;;;9.18;8.57;;;8.50;99.90;;;;;;5054191;28;20860;-81
2022/04/27 01:16:23;;;;;;;9.50;8.90;;;8.40;99.90;;;;;;5054212;28;20484;-81
2022/04/27 01:18:50;;;;;;;9.50;8.80;;;8.30;99.90;;;;;;5054159;28;20835;-81
2022/04/27 01:21:16;;;;;;;9.57;8.87;;;8.30;99.90;;;;;;5049903;28;20427;-81
2022/04/27 01:23:42;;;;;;;8.97;8.37;;;8.30;99.90;;;;;;5043004;28;20447;-81
2022/04/27 01:26:08;;;;;;;9.13;8.40;;;8.70;99.90;;;;;;5053417;28;20858;-81
2022/04/27 01:28:36;;;;;;;9.82;9.10;;;8.40;99.90;;;;;;5054095;28;20439;-81
2022/04/27 01:31:11;;;;;;;10.80;9.90;;;8.20;99.90;;;;;;5054141;28;20421;-81
2022/04/27 01:33:37;;;;;;;11.40;10.57;;;8.10;99.90;;;;;;5054085;28;20467;-81
2022/04/27 01:36:06;;;;;;;11.63;10.73;;;7.80;99.90;;;;;;5053963;28;20483;-80
2022/04/27 01:38:38;;;;;;;10.95;10.13;;;7.70;99.90;;;;;;5053697;28;20390;-81
2022/04/27 01:41:05;;;;;;;10.93;10.15;;;7.90;99.90;;;;;;5043509;28;20503;-81
2022/04/27 01:43:33;;;;;;;10.45;9.75;;;8.40;99.90;;;;;;5046071;28;20465;-81
2022/04/27 01:45:59;;;;;;;10.55;9.82;;;8.20;99.90;;;;;;5036908;28;20395;-81
2022/04/27 01:48:26;;;;;;;10.53;9.83;;;8.20;99.90;;;;;;5048412;28;20478;-81
2022/04/27 01:50:53;;;;;;;11.30;10.40;;;8.30;99.90;;;;;;5043373;28;20413;-81
2022/04/27 01:56:04;;;;;;;10.93;10.13;;;8.30;99.90;;;;;;5053877;28;20385;-80
2022/04/27 01:58:29;;;;;;;10.98;10.18;;;8.30;99.90;;;;;;5053111;28;20774;-81
2022/04/27 02:00:55;;;;;;;11.50;10.60;;;8.40;99.90;;;;;;5052592;28;20504;-81
2022/04/27 02:03:21;;;;;;;11.30;10.40;;;8.30;99.90;;;;;;5053290;28;20472;-81
2022/04/27 02:05:48;;;;;;;10.80;10.00;;;8.30;99.90;;;;;;5053082;28;20382;-81
2022/04/27 02:08:14;;;;;;;11.35;10.45;;;8.30;99.90;;;;;;5053290;28;20408;-80
2022/04/27 02:10:40;;;;;;;11.32;10.43;;;8.30;99.90;;;;;;5053488;28;20388;-81
2022/04/27 02:13:07;;;;;;;11.25;10.45;;;8.40;99.90;;;;;;5053022;28;20397;-80
2022/04/27 02:15:33;;;;;;;10.88;10.07;;;8.60;99.90;;;;;;5052975;28;20801;-81
2022/04/27 02:17:59;;;;;;;11.27;10.43;;;8.60;99.90;;;;;;5052958;28;20382;-80
2022/04/27 02:20:25;;;;;;;10.90;10.10;;;8.40;99.90;;;;;;5052874;28;20492;-80
2022/04/27 02:22:51;;;;;;;10.70;9.90;;;8.50;99.90;;;;;;5041676;28;20470;-81
2022/04/27 02:25:21;;;;;;;11.10;10.30;;;8.50;99.90;;;;;;5048160;28;20421;-81
2022/04/27 02:27:47;;;;;;;11.48;10.50;;;8.50;99.90;;;;;;5052725;28;20425;-81
2022/04/27 02:30:13;;;;;;;10.93;10.13;;;8.50;99.90;;;;;;5052811;28;20558;-81
2022/04/27 02:32:39;;;;;;;11.10;10.20;;;8.60;99.90;;;;;;5052964;28;20900;-81
2022/04/27 02:35:06;;;;;;;11.23;10.40;;;8.50;99.90;;;;;;5052551;28;20934;-81
2022/04/27 02:37:33;;;;;;;11.10;10.30;;;8.60;99.90;;;;;;5051689;28;20386;-81
2022/04/27 02:39:59;;;;;;;10.77;10.07;;;8.60;99.90;;;;;;5052562;28;20401;-80
2022/04/27 02:42:26;;;;;;;11.10;10.30;;;8.70;99.90;;;;;;5052722;28;20422;-80
2022/04/27 02:44:52;;;;;;;11.60;10.70;;;8.50;99.90;;;;;;5052459;28;20393;-81
2022/04/27 02:47:18;;;;;;;11.43;10.63;;;8.40;99.90;;;;;;5052731;28;20412;-81
2022/04/27 02:52:29;;;;;;;10.98;10.15;;;8.40;99.90;;;;;;5040299;28;20418;-80
2022/04/27 02:54:55;;;;;;;10.73;9.95;;;8.50;99.90;;;;;;5052300;28;20484;-81
2022/04/27 02:57:21;;;;;;;11.10;10.20;;;8.50;99.90;;;;;;5051576;28;20747;-81
2022/04/27 02:59:47;;;;;;;10.93;10.13;;;8.80;99.90;;;;;;5052124;28;20402;-81
2022/04/27 03:02:13;;;;;;;11.82;10.85;;;8.60;99.90;;;;;;5051298;28;20402;-81
2022/04/27 03:04:39;;;;;;;11.55;10.60;;;8.20;99.90;;;;;;5033091;28;20709;-80
2022/04/27 03:07:05;;;;;;;11.00;10.20;;;7.90;99.90;;;;;;5044273;28;20385;-80
2022/04/27 03:09:31;;;;;;;10.93;10.07;;;7.90;99.90;;;;;;5052135;28;20385;-81
2022/04/27 03:11:57;;;;;;;10.00;9.30;;;8.10;99.90;;;;;;5052423;28;20466;-80
2022/04/27 03:14:22;;;;;;;10.35;9.65;;;8.40;99.90;;;;;;5052055;28;20397;-81
2022/04/27 03:16:49;;;;;;;11.23;10.43;;;8.50;99.90;;;;;;5052191;28;20397;-81
2022/04/27 03:19:15;;;;;;;11.73;10.70;;;8.20;99.90;;;;;;5051970;28;20917;-81
2022/04/27 03:21:41;;;;;;;11.60;10.60;;;8.10;99.90;;;;;;5048199;28;20435;-80
2022/04/27 03:24:07;;;;;;;10.80;10.00;;;8.30;99.90;;;;;;5044384;28;20460;-81
2022/04/27 03:26:33;;;;;;;10.33;9.63;;;8.10;99.90;;;;;;5052014;28;20489;-81
2022/04/27 03:28:59;;;;;;;11.00;10.10;;;8.20;99.90;;;;;;5051954;28;20386;-80
2022/04/27 03:31:25;;;;;;;12.03;11.03;;;8.20;99.90;;;;;;5051907;28;20458;-80
2022/04/27 03:33:51;;;;;;;10.65;9.95;;;8.30;99.90;;;;;;5051901;28;20476;-81
2022/04/27 03:36:17;;;;;;;11.00;10.15;;;8.40;99.90;;;;;;5051884;28;20929;-81
2022/04/27 03:38:43;;;;;;;11.90;10.90;;;8.40;99.90;;;;;;5051771;28;20841;-81
2022/04/27 03:41:09;;;;;;;10.97;10.07;;;8.40;99.90;;;;;;5051867;28;20437;-80
2022/04/27 03:43:35;;;;;;;11.63;10.73;;;8.40;99.90;;;;;;5051763;28;20396;-80
2022/04/27 03:46:01;;;;;;;11.93;10.82;;;8.20;99.90;;;;;;5052168;28;20431;-81
2022/04/27 03:48:27;;;;;;;12.07;11.18;;;8.20;99.90;;;;;;5051815;28;20386;-81
2022/04/27 03:50:53;;;;;;;11.88;11.07;;;8.20;99.90;;;;;;5047418;28;20400;-81
2022/04/27 03:53:19;;;;;;;11.93;10.93;;;8.20;99.90;;;;;;5053486;28;20854;-81
2022/04/27 03:55:45;;;;;;;12.60;11.50;;;8.70;99.90;;;;;;5049463;28;20394;-81
2022/04/27 03:58:10;;;;;;;11.88;10.98;;;8.20;99.90;;;;;;5048575;28;20878;-81
2022/04/27 04:00:36;;;;;;;12.10;11.20;;;8.40;99.90;;;;;;5055499;28;20467;-81
2022/04/27 04:03:03;;;;;;;13.70;12.70;;;8.80;99.90;;;;;;5055530;28;20404;-81
2022/04/27 04:05:30;;;;;;;10.48;9.77;;;8.40;99.90;;;;;;5055467;28;20385;-81
2022/04/27 04:07:56;;;;;;;11.40;10.60;;;8.30;99.90;;;;;;5044676;28;20504;-81
2022/04/27 04:10:22;;;;;;;11.27;10.47;;;8.30;99.90;;;;;;5039622;28;20826;-80
2022/04/27 04:12:47;;;;;;;11.57;10.57;;;8.20;99.90;;;;;;5049887;28;20469;-81
2022/04/27 04:15:14;;;;;;;12.43;11.43;;;8.10;99.90;;;;;;5044545;28;20395;-81
2022/04/27 04:17:45;;;;;;;12.25;11.25;;;8.20;99.90;;;;;;5055345;28;20416;-80
2022/04/27 04:20:20;;;;;;;11.32;10.52;;;8.30;99.90;;;;;;5044516;28;20402;-80
2022/04/27 04:22:48;;;;;;;10.43;9.65;;;8.40;99.90;;;;;;5038978;28;20888;-81
2022/04/27 04:30:44;;;;;;;11.38;10.48;;;8.40;99.90;;;;;;5055412;28;20401;-81
2022/04/27 04:33:10;;;;;;;12.18;11.13;;;8.20;99.90;;;;;;5055196;28;20385;-80
2022/04/27 04:35:37;;;;;;;11.68;10.77;;;8.20;99.90;;;;;;5053739;28;20769;-80
2022/04/27 04:38:06;;;;;;;11.48;10.57;;;8.00;99.90;;;;;;5054848;28;20400;-80
2022/04/27 04:40:32;;;;;;;12.15;11.25;;;8.10;99.90;;;;;;5055234;28;20406;-80
2022/04/27 04:42:58;;;;;;;11.60;10.70;;;8.10;99.90;;;;;;5054902;28;20385;-81
2022/04/27 04:45:24;;;;;;;11.88;10.98;;;8.40;99.90;;;;;;5054773;28;20380;-81
2022/04/27 04:47:51;;;;;;;12.90;11.80;;;8.10;99.90;;;;;;5054921;28;20385;-80
2022/04/27 04:50:17;;;;;;;11.70;10.80;;;8.30;99.90;;;;;;5046381;28;20408;-81
2022/04/27 04:52:43;;;;;;;11.85;10.95;;;8.10;99.90;;;;;;5048420;28;20494;-80
2022/04/27 04:55:09;;;;;;;12.00;11.10;;;8.10;99.90;;;;;;5050341;28;20390;-80
2022/04/27 04:57:35;;;;;;;12.90;11.88;;;8.20;99.90;;;;;;5044741;28;20403;-81
2022/04/27 05:00:02;;;;;;;12.77;11.77;;;8.10;99.90;;;;;;5024524;28;20395;-80
2022/04/27 05:02:31;;;;;;;11.70;10.90;;;8.30;99.90;;;;;;5031464;28;20740;-81
2022/04/27 05:05:02;;;;;;;11.63;10.73;;;8.50;99.90;;;;;;5034589;28;20471;-80
2022/04/27 05:07:34;;;;;;;13.27;12.10;;;8.40;99.90;;;;;;5035918;28;20391;-81
2022/04/27 05:09:59;;;;;;;12.50;11.50;;;8.40;99.90;;;;;;5039248;28;20848;-81
2022/04/27 05:12:25;;;;;;;12.07;11.07;;;8.40;99.90;;;;;;5030417;28;20424;-80
2022/04/27 05:14:51;;;;;;;12.13;11.13;;;8.50;99.90;;;;;;5036122;28;20448;-80
2022/04/27 05:17:17;;;;;;;12.18;11.27;;;8.40;99.90;;;;;;5045890;28;20468;-80
2022/04/27 05:19:43;;;;;;;12.40;11.40;;;8.40;99.90;;;;;;5036279;28;20497;-80
2022/04/27 05:22:08;;;;;;;12.27;11.33;;;8.40;99.90;;;;;;5045328;28;20405;-81
2022/04/27 05:24:34;;;;;;;11.60;10.70;;;8.50;99.90;;;;;;5025779;28;20402;-80
2022/04/27 05:27:00;;;;;;;12.00;11.00;;;8.40;99.90;;;;;;5046178;28;20383;-80
2022/04/27 05:32:10;;;;;;;11.52;10.57;;;8.50;99.90;;;;;;5041076;28;20376;-80
2022/04/27 05:34:36;;;;;;;10.70;9.90;;;8.50;99.90;;;;;;5051635;28;20386;-79
2022/04/27 05:37:03;;;;;;;10.65;9.82;;;8.50;99.90;;;;;;5052530;28;20400;-79
2022/04/27 05:39:28;;;;;;;10.88;10.05;;;8.50;99.90;;;;;;5053412;28;20490;-79
2022/04/27 05:42:04;;;;;;;11.10;10.00;;;8.60;99.90;;;;;;5053635;28;20906;-77
2022/04/27 05:44:31;;;;;;;10.18;9.27;;;8.60;99.90;;;;;;5039869;28;20741;-77
2022/04/27 05:46:57;;;;;;;10.52;9.80;;;8.60;99.90;;;;;;5052220;28;20386;-79
2022/04/27 05:49:23;;;;;;;10.10;9.30;;;8.70;99.90;;;;;;5025692;28;20767;-77
2022/04/27 05:51:49;;;;;;;9.68;8.88;;;8.80;99.90;;;;;;5026326;28;20871;-79
2022/04/27 05:54:15;;;;;;;10.57;9.77;;;8.90;99.90;;;;;;5040765;28;20398;-79
2022/04/27 05:56:41;;;;;;;10.40;9.60;;;8.90;99.90;;;;;;5053384;28;20382;-77
2022/04/27 05:59:10;;;;;;;10.48;9.57;;;8.90;99.90;;;;;;5051079;28;20898;-79
2022/04/27 06:01:37;;;;;;;10.43;9.63;;;8.90;99.90;;;;;;5029328;28;20411;-79
2022/04/27 06:04:03;;;;;;;9.70;8.90;;;8.90;99.90;;;;;;5035865;28;20418;-82
2022/04/27 06:06:29;;;;;;;9.18;8.43;;;9.00;99.90;;;;;;5053375;28;20396;-82
2022/04/27 06:08:55;;;;;;;9.05;8.25;;;9.10;99.90;;;;;;5045151;28;20437;-82
2022/04/27 06:11:21;;;;;;;8.60;7.90;;;9.10;99.90;;;;;;5035065;28;20395;-83
2022/04/27 06:13:47;;;;;;;8.75;8.15;;;9.20;99.90;;;;;;5033961;28;20379;-82
2022/04/27 06:16:13;;;;;;;8.30;7.70;;;9.10;99.90;;;;;;5036965;28;20400;-82
2022/04/27 06:18:40;;;;;;;8.77;8.05;;;9.20;99.90;;;;;;5041098;28;20742;-82
2022/04/27 06:21:10;;;;;;;9.00;8.40;;;9.20;99.90;;;;;;5052506;28;21020;-82
2022/04/27 06:23:37;;;;;;;8.60;7.85;;;9.60;99.90;;;;;;5052716;28;20389;-81
2022/04/27 06:26:05;;;;;;;8.75;8.05;;;9.20;99.90;;;;;;5051693;28;20381;-83
2022/04/27 06:28:32;;;;;;;8.95;8.25;;;9.60;99.90;;;;;;5030486;28;20527;-82
2022/04/27 06:30:57;;;;;;;8.95;8.25;;;9.10;99.90;;;;;;5032339;28;20871;-83
2022/04/27 06:33:23;;;;;;;9.02;8.32;;;9.10;99.90;;;;;;5039427;28;20394;-83
2022/04/27 06:35:50;;;;;;;9.57;8.82;;;9.10;99.90;;;;;;5031695;28;20821;-83
2022/04/27 06:38:16;;;;;;;8.10;7.50;;;9.20;99.90;;;;;;5032377;28;20401;-83
2022/04/27 06:40:41;;;;;;;9.95;9.23;;;9.40;99.90;;;;;;5025345;28;20416;-82
2022/04/27 06:43:07;;;;;;;9.63;8.93;;;9.60;99.90;;;;;;5017722;28;20467;-82
2022/04/27 06:45:36;;;;;;;9.10;8.30;;;9.10;99.90;;;;;;5016662;28;20488;-83
2022/04/27 06:48:05;;;;;;;9.57;8.68;;;9.30;99.90;;;;;;5027259;28;20470;-82
2022/04/27 06:50:31;;;;;;;8.70;8.00;;;9.30;99.90;;;;;;5043638;28;20819;-82
2022/04/27 06:52:59;;;;;;;8.50;7.80;;;9.40;99.90;;;;;;5052401;28;20413;-82
2022/04/27 06:55:25;;;;;;;8.93;8.23;;;9.50;99.90;;;;;;5052366;28;20385;-82
2022/04/27 06:57:51;;;;;;;9.45;8.75;;;9.50;99.90;;;;;;5033914;28;20428;-82
2022/04/27 07:00:17;;;;;;;10.07;9.27;;;10.30;99.90;;;;;;5042168;28;20421;-82
2022/04/27 07:02:43;;;;;;;9.60;8.80;;;9.40;99.90;;;;;;5034827;28;20433;-82
2022/04/27 07:05:12;;;;;;;9.05;8.38;;;9.50;99.90;;;;;;5027538;28;20395;-80
2022/04/27 07:07:38;;;;;;;9.60;8.70;;;9.50;99.90;;;;;;5042065;28;20382;-82
2022/04/27 07:10:04;;;;;;;10.90;10.00;;;9.60;99.90;;;;;;5052114;28;20389;-82
2022/04/27 07:12:29;;;;;;;9.40;8.60;;;9.50;99.90;;;;;;5050319;28;20415;-82
2022/04/27 07:14:56;;;;;;;9.80;9.00;;;9.50;99.90;;;;;;5052083;28;20389;-81
2022/04/27 07:17:22;;;;;;;9.45;8.68;;;9.70;99.90;;;;;;5052626;28;20934;-81
2022/04/27 07:19:47;;;;;;;10.35;9.40;;;9.70;99.90;;;;;;5044931;28;20473;-81
2022/04/27 07:22:13;;;;;;;10.77;9.90;;;9.80;99.90;;;;;;5052056;28;20401;-82
2022/04/27 07:24:39;;;;;;;10.20;9.40;;;9.50;99.90;;;;;;5050315;28;20791;-82
2022/04/27 07:27:05;;;;;;;10.30;9.50;;;9.80;99.90;;;;;;5051992;28;20562;-82
2022/04/27 07:29:32;;;;;;;10.32;9.52;;;9.80;99.90;;;;;;5034053;28;20387;-82
2022/04/27 07:32:01;;;;;;;10.77;9.77;;;9.80;99.90;;;;;;5052441;28;20484;-82
2022/04/27 07:34:27;;;;;;;10.18;9.27;;;9.80;99.90;;;;;;5051969;28;20750;-82
2022/04/27 07:36:52;;;;;;;10.73;9.93;;;9.80;99.90;;;;;;5050941;28;20393;-82
2022/04/27 07:39:18;;;;;;;10.23;9.33;;;9.90;99.90;;;;;;5051778;28;20426;-82
2022/04/27 07:41:45;;;;;;;10.20;9.40;;;10.00;99.90;;;;;;5050360;28;20405;-82
2022/04/27 07:44:11;;;;;;;9.55;8.85;;;10.20;99.90;;;;;;5041549;28;20751;-82
2022/04/27 07:46:37;;;;;;;9.95;9.15;;;10.30;99.90;;;;;;5046839;28;20379;-81
2022/04/27 07:49:03;;;;;;;10.63;9.70;;;11.00;99.90;;;;;;5037541;28;20798;-82
2022/04/27 07:51:28;;;;;;;9.53;8.83;;;10.30;99.90;;;;;;5045525;28;20381;-82
2022/04/27 07:53:54;;;;;;;10.47;9.47;;;10.60;99.90;;;;;;5051729;28;20774;-82
2022/04/27 07:56:20;;;;;;;10.20;9.43;;;10.40;99.90;;;;;;5051764;28;20381;-82
2022/04/27 07:58:45;;;;;;;9.97;9.20;;;10.50;99.90;;;;;;5051566;28;20409;-82
2022/04/27 08:01:11;;;;;;;9.83;9.03;;;10.40;99.90;;;;;;5051643;28;20435;-82
2022/04/27 08:03:37;;;;;;;11.03;10.10;;;10.60;99.90;;;;;;5051391;28;20388;-82
2022/04/27 08:06:04;;;;;;;10.53;9.63;;;10.60;99.90;;;;;;5051877;28;20809;-82
2022/04/27 08:08:30;;;;;;;10.65;9.85;;;10.60;99.90;;;;;;5051718;28;20898;-82
2022/04/27 08:10:56;;;;;;;10.80;10.00;;;10.50;99.90;;;;;;5050277;28;20917;-82
2022/04/27 08:13:22;;;;;;;10.23;9.50;;;10.50;99.90;;;;;;5051622;28;20381;-82
2022/04/27 08:15:48;;;;;;;10.25;9.45;;;10.50;99.90;;;;;;5051600;28;20377;-82
2022/04/27 08:18:14;;;;;;;10.33;9.53;;;10.60;99.90;;;;;;5051403;28;20442;-82
2022/04/27 08:23:30;;;;;;;8.82;8.07;;;10.70;99.90;;;;;;5051536;28;20413;-81
2022/04/27 08:26:01;;;;;;;9.18;8.48;;;10.70;99.90;;;;;;5051552;28;20381;-82
2022/04/27 08:28:27;;;;;;;8.60;7.97;;;10.80;99.90;;;;;;5051438;28;20461;-82
2022/04/27 08:30:53;;;;;;;7.45;6.85;;;10.80;99.90;;;;;;5050342;28;20957;-82
2022/04/27 08:33:20;;;;;;;7.10;6.60;;;10.70;99.90;;;;;;5043399;28;20379;-82
2022/04/27 08:35:47;;;;;;;6.35;5.85;;;10.60;99.90;;;;;;5042129;28;20614;-82
2022/04/27 08:38:13;;;;;;;6.60;6.00;;;10.60;99.90;;;;;;5055047;28;20495;-82
2022/04/27 08:40:44;;;;;;;6.53;6.05;;;10.80;99.90;;;;;;5054824;28;20401;-82
2022/04/27 08:43:10;;;;;;;6.47;5.97;;;10.70;99.90;;;;;;5050887;28;20377;-82
2022/04/27 08:45:37;;;;;;;6.80;6.20;;;10.70;99.90;;;;;;5054844;28;20389;-82
2022/04/27 08:48:04;;;;;;;7.65;7.05;;;10.90;99.90;;;;;;5053421;28;20447;-81
2022/04/27 08:50:30;;;;;;;6.78;6.22;;;10.90;99.90;;;;;;5040699;28;20389;-82
2022/04/27 08:52:56;;;;;;;6.78;6.28;;;10.90;99.90;;;;;;5046522;28;20757;-82
2022/04/27 08:55:22;;;;;;;8.60;7.80;;;11.00;99.90;;;;;;5054616;28;20382;-82
2022/04/27 08:57:49;;;;;;;7.93;7.33;;;11.00;99.90;;;;;;5054575;28;20488;-82
2022/04/27 09:00:17;;;;;;;7.35;6.85;;;11.10;99.90;;;;;;5054517;28;20393;-82
2022/04/27 09:02:42;;;;;;;7.65;7.05;;;11.10;99.90;;;;;;5053086;28;20381;-82
2022/04/27 09:05:22;;;;;;;7.80;7.13;;;11.10;99.90;;;;;;5054357;28;20385;-82
2022/04/27 09:07:51;;;;;;;6.95;6.35;;;11.30;99.90;;;;;;5054337;28;20715;-82
2022/04/27 09:10:18;;;;;;;6.53;5.97;;;11.40;99.90;;;;;;5054689;28;20435;-82
2022/04/27 09:12:52;;;;;;;6.20;5.70;;;11.50;99.90;;;;;;5054418;28;20377;-82
2022/04/27 09:15:21;;;;;;;6.57;6.07;;;11.50;99.90;;;;;;5040700;28;20718;-82
2022/04/27 09:20:46;;;;;;;6.85;6.25;;;11.70;99.90;;;;;;5054405;28;20990;-82
2022/04/27 09:23:27;;;;;;;6.43;5.93;;;11.80;99.90;;;;;;5054112;28;20446;-82
2022/04/27 09:25:59;;;;;;;6.45;6.05;;;11.90;99.90;;;;;;5052609;28;20390;-82
2022/04/27 09:28:29;;;;;;;7.07;6.47;;;12.00;99.90;;;;;;5041264;28;20382;-82
2022/04/27 09:30:56;;;;;;;6.55;6.05;;;12.10;99.90;;;;;;5053958;28;20472;-82
2022/04/27 09:33:37;;;;;;;7.30;6.80;;;12.40;99.90;;;;;;5053691;28;20746;-82
2022/04/27 09:36:19;;;;;;;7.00;6.50;;;12.10;99.90;;;;;;5054159;28;20443;-82
2022/04/27 09:38:44;;;;;;;7.80;7.00;;;12.10;99.90;;;;;;5053804;28;20401;-82
2022/04/27 09:41:10;;;;;;;6.63;6.13;;;12.10;99.90;;;;;;5053679;28;20401;-82
2022/04/27 09:43:49;;;;;;;7.10;6.40;;;12.20;99.90;;;;;;5053429;28;20420;-83
2022/04/27 09:46:15;;;;;;;7.60;7.00;;;12.20;99.90;;;;;;5053512;28;20462;-82
2022/04/27 09:48:42;;;;;;;8.20;7.50;;;12.20;99.90;;;;;;5053149;28;20381;-82
2022/04/27 09:51:13;;;;;;;7.97;7.18;;;12.20;99.90;;;;;;5035686;28;20387;-83
2022/04/27 09:53:45;;;;;;;7.50;6.80;;;12.30;99.90;;;;;;5050819;28;20381;-82
2022/04/27 09:56:12;;;;;;;6.68;6.10;;;12.40;99.90;;;;;;5053728;28;20380;-83
2022/04/27 09:58:44;;;;;;;6.50;6.00;;;12.60;99.90;;;;;;5053240;28;20397;-83
2022/04/27 10:01:16;;;;;;;6.10;5.60;;;12.80;99.90;;;;;;5053429;28;20904;-82
2022/04/27 10:03:46;;;;;;;6.03;5.53;;;12.80;99.90;;;;;;5053323;28;20745;-83
2022/04/27 10:06:12;;;;;;;6.75;6.25;;;12.90;99.90;;;;;;5053589;28;20468;-83
2022/04/27 10:08:40;;;;;;;6.70;6.20;;;12.80;99.90;;;;;;5053297;28;20392;-83
2022/04/27 10:11:07;;;;;;;6.75;6.25;;;12.90;99.90;;;;;;5053117;28;20495;-82
2022/04/27 10:13:33;;;;;;;6.60;6.10;;;13.00;99.90;;;;;;5053041;28;20392;-83
2022/04/27 10:15:59;;;;;;;7.45;6.85;;;13.00;99.90;;;;;;5053047;28;20393;-82
2022/04/27 10:18:25;;;;;;;7.28;6.78;;;13.20;99.90;;;;;;5052906;28;20877;-83
2022/04/27 10:20:51;;;;;;;7.05;6.53;;;13.10;99.90;;;;;;5053019;28;20428;-83
2022/04/27 10:23:19;;;;;;;7.05;6.55;;;13.00;99.90;;;;;;5051649;28;20442;-83
2022/04/27 10:26:11;;;;;;;6.85;6.35;;;13.00;99.90;;;;;;5052949;28;20413;-83
2022/04/27 10:28:40;;;;;;;7.40;6.75;;;13.10;99.90;;;;;;5053020;28;20382;-82
2022/04/27 10:31:08;;;;;;;7.05;6.55;;;13.10;99.90;;;;;;5052876;28;20389;-83
2022/04/27 10:33:56;;;;;;;6.90;6.40;;;13.20;99.90;;;;;;5052547;28;20382;-83
2022/04/27 10:36:28;;;;;;;6.47;5.97;;;13.30;99.90;;;;;;5052738;28;20384;-83
2022/04/27 10:39:12;;;;;;;6.20;5.78;;;13.30;99.90;;;;;;5052716;28;20388;-83
2022/04/27 10:41:47;;;;;;;6.40;6.00;;;13.40;99.90;;;;;;5047754;28;20426;-83
2022/04/27 10:44:13;;;;;;;6.95;6.35;;;13.60;99.90;;;;;;5038011;28;20438;-83
2022/04/27 10:46:41;;;;;;;5.90;5.40;;;13.80;99.90;;;;;;5028849;28;20385;-83
2022/04/27 10:49:24;;;;;;;6.18;5.70;;;14.00;99.90;;;;;;5049860;28;20935;-83
2022/04/27 10:52:06;;;;;;;7.32;6.70;;;13.90;99.90;;;;;;5048939;28;20421;-82
2022/04/27 10:54:34;;;;;;;7.03;6.43;;;14.00;99.90;;;;;;5052488;28;20412;-83
2022/04/27 10:57:15;;;;;;;6.63;6.13;;;14.00;99.90;;;;;;5049157;28;20382;-83
2022/04/27 10:59:49;;;;;;;6.45;5.95;;;14.00;99.90;;;;;;5051500;28;20747;-82
2022/04/27 11:02:34;;;;;;;6.53;6.13;;;14.10;99.90;;;;;;5042062;28;20406;-83
2022/04/27 11:05:01;;;;;;;6.25;5.78;;;14.00;99.90;;;;;;5046340;28;20388;-83
2022/04/27 11:07:29;;;;;;;6.90;6.40;;;14.10;99.90;;;;;;5051210;28;20393;-83
2022/04/27 11:10:08;;;;;;;5.80;5.40;;;14.20;99.90;;;;;;5052261;28;20386;-83
2022/04/27 11:12:36;;;;;;;5.27;4.80;;;14.50;99.90;;;;;;5042338;28;20385;-83
2022/04/27 11:15:04;;;;;;;5.60;5.10;;;14.60;99.90;;;;;;5052069;28;20878;-82
2022/04/27 11:17:30;;;;;;;5.68;5.10;;;14.60;99.90;;;;;;5052200;28;20444;-83
2022/04/27 11:19:56;;;;;;;6.03;5.53;;;14.60;99.90;;;;;;5052080;28;20458;-83
2022/04/27 11:22:22;;;;;;;5.63;5.22;;;14.60;99.90;;;;;;5052047;28;20444;-83
2022/04/27 11:24:50;;;;;;;6.00;5.60;;;14.60;99.90;;;;;;5051942;28;20405;-83
2022/04/27 11:27:32;;;;;;;5.80;5.40;;;14.70;99.90;;;;;;5052084;28;20389;-83
2022/04/27 11:29:58;;;;;;;6.00;5.60;;;14.80;99.90;;;;;;5034380;28;20387;-83
2022/04/27 11:32:28;;;;;;;6.65;5.57;;;15.00;99.90;;;;;;5042737;28;20484;-82
2022/04/27 11:34:53;;;;;;;5.90;5.50;;;15.10;99.90;;;;;;5052155;28;20845;-83
2022/04/27 11:37:20;;;;;;;5.88;5.40;;;15.10;99.90;;;;;;5042655;28;20390;-83
2022/04/27 11:39:48;;;;;;;5.85;5.35;;;15.40;99.90;;;;;;5047014;28;20435;-83
2022/04/27 11:42:16;;;;;;;5.35;4.95;;;15.40;99.90;;;;;;5051245;28;20799;-84
2022/04/27 11:44:48;;;;;;;5.57;5.18;;;15.30;99.90;;;;;;5051825;28;20810;-83
2022/04/27 11:47:28;;;;;;;5.57;5.18;;;15.20;99.90;;;;;;5052128;28;20418;-83
2022/04/27 11:49:55;;;;;;;6.20;5.80;;;15.40;99.90;;;;;;5043140;28;20387;-84
2022/04/27 11:52:21;;;;;;;6.10;5.55;;;15.50;99.90;;;;;;5052185;28;20377;-83
2022/04/27 11:54:47;;;;;;;6.15;5.75;;;15.60;99.90;;;;;;5051703;28;20385;-83
2022/04/27 11:57:20;;;;;;;4.93;4.53;;;15.50;99.90;;;;;;5042740;28;20394;-83
2022/04/27 11:59:47;;;;;;;4.93;4.53;;;15.40;99.90;;;;;;5043425;28;20409;-83
2022/04/27 12:02:19;;;;;;;4.15;3.85;;;15.40;99.90;;;;;;5051525;28;20402;-83
2022/04/27 12:04:45;;;;;;;5.00;4.70;;;15.30;99.90;;;;;;5051707;28;20373;-83
2022/04/27 12:07:14;;;;;;;4.40;4.10;;;15.30;99.90;;;;;;5051679;28;20743;-83
2022/04/27 12:09:40;;;;;;;6.30;5.27;;;15.50;99.90;;;;;;5051936;28;20432;-83
2022/04/27 12:12:11;;;;;;;4.18;3.88;;;15.60;99.90;;;;;;5054223;28;20797;-83
2022/04/27 12:14:41;;;;;;;4.55;4.15;;;15.80;99.90;;;;;;5055309;28;20392;-83
2022/04/27 12:17:06;;;;;;;4.68;4.28;;;15.70;99.90;;;;;;5044990;28;20437;-83
2022/04/27 12:19:33;;;;;;;4.47;4.07;;;15.70;99.90;;;;;;5051931;28;20393;-84
2022/04/27 12:22:14;;;;;;;4.10;3.80;;;15.90;99.90;;;;;;5055253;28;20467;-83
2022/04/27 12:24:46;;;;;;;3.90;3.60;;;16.20;99.90;;;;;;5055387;28;20389;-84
2022/04/27 12:27:21;;;;;;;4.53;4.10;;;16.40;99.90;;;;;;5055277;28;20396;-83
2022/04/27 12:29:47;;;;;;;4.43;4.10;;;16.30;99.90;;;;;;5055082;28;20381;-83
2022/04/27 12:32:13;;;;;;;4.13;3.83;;;16.10;99.90;;;;;;5055145;28;20386;-83
2022/04/27 12:37:34;;;;;;;3.80;3.50;;;16.10;99.90;;;;;;5035359;28;20388;-83
2022/04/27 12:40:20;;;;;;;3.80;3.50;;;16.20;99.90;;;;;;5052044;28;20474;-83
2022/04/27 12:43:06;;;;;;;3.40;3.20;;;16.10;99.90;;;;;;5055000;28;20393;-83
2022/04/27 12:45:35;;;;;;;3.90;3.60;;;16.20;99.90;;;;;;5055000;28;20439;-83
2022/04/27 12:48:03;;;;;;;3.97;3.67;;;16.20;99.90;;;;;;5047722;28;20923;-82
2022/04/27 12:50:29;;;;;;;3.60;3.30;;;16.20;99.90;;;;;;5044946;28;20382;-83
2022/04/27 12:53:09;;;;;;;4.07;3.78;;;16.10;99.90;;;;;;5055054;28;20787;-82
2022/04/27 12:55:35;;;;;;;4.22;3.92;;;16.20;99.90;;;;;;5053257;28;20461;-83
2022/04/27 12:58:01;;;;;;;3.92;3.63;;;16.40;99.90;;;;;;5054501;28;20436;-83
2022/04/27 13:00:48;;;;;;;3.60;3.30;;;16.40;99.90;;;;;;5054581;28;20405;-83
2022/04/27 13:03:14;;;;;;;3.97;3.67;;;16.50;99.90;;;;;;5054649;28;20396;-83
2022/04/27 13:05:41;;;;;;;4.28;3.97;;;16.50;99.90;;;;;;5040140;28;20383;-83
2022/04/27 13:08:08;;;;;;;3.92;3.70;;;16.50;99.90;;;;;;5040790;28;20897;-83
2022/04/27 13:13:19;;;;;;;3.78;3.58;;;16.20;99.90;;;;;;5029435;28;20393;-83